sensor_id;sensor_type;location;lat;lon;timestamp;pressure;altitude;pressure_sealevel;temperature;humidity
79463;BME280;68931;47.286;18.756;2024-03-08T00:00:17;100980.34;;;5.32;100.00
79463;BME280;68931;47.286;18.756;2024-03-08T00:00:50;100980.31;;;5.34;100.00
79463;BME280;68931;47.286;18.756;2024-03-08T00:01:23;100970.09;;;5.27;100.00
79463;BME280;68931;47.286;18.756;2024-03-08T00:01:55;100978.59;;;5.33;100.00
79463;BME280;68931;47.286;18.756;2024-03-08T00:02:27;100966.56;;;5.28;100.00
79463;BME280;68931;47.286;18.756;2024-03-08T00:03:00;100975.16;;;5.32;100.00
79463;BME280;68931;47.286;18.756;2024-03-08T00:03:34;100969.13;;;5.30;100.00
79463;BME280;68931;47.286;18.756;2024-03-08T00:04:06;100980.31;;;5.34;100.00
79463;BME280;68931;47.286;18.756;2024-03-08T00:04:38;100974.25;;;5.33;100.00
79463;BME280;68931;47.286;18.756;2024-03-08T00:05:11;100969.97;;;5.30;100.00
79463;BME280;68931;47.286;18.756;2024-03-08T00:05:46;100977.72;;;5.34;100.00
79463;BME280;68931;47.286;18.756;2024-03-08T00:06:18;100964.88;;;5.27;100.00
79463;BME280;68931;47.286;18.756;2024-03-08T00:06:50;100970.97;;;5.26;100.00
79463;BME280;68931;47.286;18.756;2024-03-08T00:07:22;100976.00;;;5.33;100.00
79463;BME280;68931;47.286;18.756;2024-03-08T00:07:54;100976.81;;;5.35;100.00
79463;BME280;68931;47.286;18.756;2024-03-08T00:08:26;100981.97;;;5.36;100.00
79463;BME280;68931;47.286;18.756;2024-03-08T00:08:58;100981.06;;;5.37;100.00
79463;BME280;68931;47.286;18.756;2024-03-08T00:09:30;100964.06;;;5.25;100.00
79463;BME280;68931;47.286;18.756;2024-03-08T00:10:07;100946.97;;;5.17;100.00
79463;BME280;68931;47.286;18.756;2024-03-08T00:10:45;100969.22;;;5.27;100.00
79463;BME280;68931;47.286;18.756;2024-03-08T00:11:17;100973.31;;;5.36;100.00
79463;BME280;68931;47.286;18.756;2024-03-08T00:11:49;100973.38;;;5.34;100.00
79463;BME280;68931;47.286;18.756;2024-03-08T00:12:22;100973.31;;;5.36;100.00
79463;BME280;68931;47.286;18.756;2024-03-08T00:12:54;100974.22;;;5.35;100.00
79463;BME280;68931;47.286;18.756;2024-03-08T00:13:26;100982.72;;;5.40;100.00
79463;BME280;68931;47.286;18.756;2024-03-08T00:13:58;100981.06;;;5.37;100.00
79463;BME280;68931;47.286;18.756;2024-03-08T00:14:30;100972.53;;;5.32;100.00
79463;BME280;68931;47.286;18.756;2024-03-08T00:15:02;100954.59;;;5.23;100.00
79463;BME280;68931;47.286;18.756;2024-03-08T00:15:34;100983.66;;;5.37;100.00
79463;BME280;68931;47.286;18.756;2024-03-08T00:16:06;100978.47;;;5.37;100.00
79463;BME280;68931;47.286;18.756;2024-03-08T00:16:39;100958.88;;;5.25;100.00
79463;BME280;68931;47.286;18.756;2024-03-08T00:17:15;100977.53;;;5.40;100.00
79463;BME280;68931;47.286;18.756;2024-03-08T00:17:47;100970.75;;;5.34;100.00
79463;BME280;68931;47.286;18.756;2024-03-08T00:18:19;100974.25;;;5.33;100.00
79463;BME280;68931;47.286;18.756;2024-03-08T00:18:51;100987.94;;;5.40;100.00
79463;BME280;68931;47.286;18.756;2024-03-08T00:19:23;100981.06;;;5.37;100.00
79463;BME280;68931;47.286;18.756;2024-03-08T00:19:55;100980.09;;;5.41;100.00
79463;BME280;68931;47.286;18.756;2024-03-08T00:20:27;100975.94;;;5.36;100.00
79463;BME280;68931;47.286;18.756;2024-03-08T00:20:59;100978.34;;;5.42;100.00
79463;BME280;68931;47.286;18.756;2024-03-08T00:21:32;100973.44;;;5.31;100.00
79463;BME280;68931;47.286;18.756;2024-03-08T00:22:04;100975.94;;;5.36;100.00
79463;BME280;68931;47.286;18.756;2024-03-08T00:22:39;100987.06;;;5.39;100.00
79463;BME280;68931;47.286;18.756;2024-03-08T00:23:12;100975.00;;;5.37;100.00
79463;BME280;68931;47.286;18.756;2024-03-08T00:23:44;100993.06;;;5.43;100.00
79463;BME280;68931;47.286;18.756;2024-03-08T00:24:16;100968.16;;;5.34;100.00
79463;BME280;68931;47.286;18.756;2024-03-08T00:24:48;100985.25;;;5.43;100.00
79463;BME280;68931;47.286;18.756;2024-03-08T00:25:25;100979.22;;;5.41;100.00
79463;BME280;68931;47.286;18.756;2024-03-08T00:25:57;100981.84;;;5.41;100.00
79463;BME280;68931;47.286;18.756;2024-03-08T00:26:29;100978.38;;;5.40;100.00
79463;BME280;68931;47.286;18.756;2024-03-08T00:27:01;100978.31;;;5.43;100.00
79463;BME280;68931;47.286;18.756;2024-03-08T00:27:37;100979.13;;;5.45;100.00
79463;BME280;68931;47.286;18.756;2024-03-08T00:28:10;100976.59;;;5.42;100.00
79463;BME280;68931;47.286;18.756;2024-03-08T00:28:45;100982.69;;;5.41;100.00
79463;BME280;68931;47.286;18.756;2024-03-08T00:29:17;100970.66;;;5.37;100.00
79463;BME280;68931;47.286;18.756;2024-03-08T00:29:49;100980.91;;;5.43;100.00
79463;BME280;68931;47.286;18.756;2024-03-08T00:30:22;100976.66;;;5.39;100.00
79463;BME280;68931;47.286;18.756;2024-03-08T00:30:57;100962.09;;;5.34;100.00
79463;BME280;68931;47.286;18.756;2024-03-08T00:31:29;100963.69;;;5.38;100.00
79463;BME280;68931;47.286;18.756;2024-03-08T00:32:03;100973.19;;;5.40;100.00
79463;BME280;68931;47.286;18.756;2024-03-08T00:32:35;100979.16;;;5.44;100.00
79463;BME280;68931;47.286;18.756;2024-03-08T00:33:08;100945.00;;;5.25;100.00
79463;BME280;68931;47.286;18.756;2024-03-08T00:33:41;100968.75;;;5.44;100.00
79463;BME280;68931;47.286;18.756;2024-03-08T00:34:13;100959.34;;;5.38;100.00
79463;BME280;68931;47.286;18.756;2024-03-08T00:34:45;100980.06;;;5.43;100.00
79463;BME280;68931;47.286;18.756;2024-03-08T00:35:17;100980.06;;;5.43;100.00
79463;BME280;68931;47.286;18.756;2024-03-08T00:35:49;100968.88;;;5.39;100.00
79463;BME280;68931;47.286;18.756;2024-03-08T00:36:21;100966.31;;;5.38;100.00
79463;BME280;68931;47.286;18.756;2024-03-08T00:36:53;100948.44;;;5.27;100.00
79463;BME280;68931;47.286;18.756;2024-03-08T00:37:25;100969.69;;;5.41;100.00
79463;BME280;68931;47.286;18.756;2024-03-08T00:37:57;100986.84;;;5.47;100.00
79463;BME280;68931;47.286;18.756;2024-03-08T00:38:29;100948.34;;;5.28;100.00
79463;BME280;68931;47.286;18.756;2024-03-08T00:39:01;100980.06;;;5.43;100.00
79463;BME280;68931;47.286;18.756;2024-03-08T00:39:34;100956.03;;;5.33;100.00
79463;BME280;68931;47.286;18.756;2024-03-08T00:40:06;100968.84;;;5.41;100.00
79463;BME280;68931;47.286;18.756;2024-03-08T00:40:40;100962.91;;;5.36;100.00
79463;BME280;68931;47.286;18.756;2024-03-08T00:41:13;100957.66;;;5.37;100.00
79463;BME280;68931;47.286;18.756;2024-03-08T00:41:45;100969.66;;;5.43;100.00
79463;BME280;68931;47.286;18.756;2024-03-08T00:42:18;100962.00;;;5.37;100.00
79463;BME280;68931;47.286;18.756;2024-03-08T00:42:50;100957.75;;;5.34;100.00
79463;BME280;68931;47.286;18.756;2024-03-08T00:43:22;100978.16;;;5.48;100.00
79463;BME280;68931;47.286;18.756;2024-03-08T00:43:54;100969.53;;;5.46;100.00
79463;BME280;68931;47.286;18.756;2024-03-08T00:44:26;100973.00;;;5.46;100.00
79463;BME280;68931;47.286;18.756;2024-03-08T00:44:58;100973.00;;;5.46;100.00
79463;BME280;68931;47.286;18.756;2024-03-08T00:45:30;100965.38;;;5.40;100.00
79463;BME280;68931;47.286;18.756;2024-03-08T00:46:02;100965.19;;;5.46;100.00
79463;BME280;68931;47.286;18.756;2024-03-08T00:46:34;100975.56;;;5.48;100.00
79463;BME280;68931;47.286;18.756;2024-03-08T00:47:06;100970.50;;;5.43;100.00
79463;BME280;68931;47.286;18.756;2024-03-08T00:47:38;100966.84;;;5.49;100.00
79463;BME280;68931;47.286;18.756;2024-03-08T00:48:10;100959.25;;;5.43;100.00
79463;BME280;68931;47.286;18.756;2024-03-08T00:48:42;100970.50;;;5.43;100.00
79463;BME280;68931;47.286;18.756;2024-03-08T00:49:15;100966.22;;;5.41;100.00
79463;BME280;68931;47.286;18.756;2024-03-08T00:49:48;100967.03;;;5.43;100.00
79463;BME280;68931;47.286;18.756;2024-03-08T00:50:20;100967.78;;;5.46;100.00
79463;BME280;68931;47.286;18.756;2024-03-08T00:50:52;100967.84;;;5.45;100.00
79463;BME280;68931;47.286;18.756;2024-03-08T00:51:24;100953.38;;;5.36;100.00
79463;BME280;68931;47.286;18.756;2024-03-08T00:51:56;100949.81;;;5.39;100.00
79463;BME280;68931;47.286;18.756;2024-03-08T00:52:28;100954.97;;;5.40;100.00
79463;BME280;68931;47.286;18.756;2024-03-08T00:53:00;100967.00;;;5.44;100.00
79463;BME280;68931;47.286;18.756;2024-03-08T00:53:32;100957.44;;;5.45;100.00
79463;BME280;68931;47.286;18.756;2024-03-08T00:54:05;100969.47;;;5.49;100.00
79463;BME280;68931;47.286;18.756;2024-03-08T00:54:40;100970.31;;;5.49;100.00
79463;BME280;68931;47.286;18.756;2024-03-08T00:55:12;100965.16;;;5.48;100.00
79463;BME280;68931;47.286;18.756;2024-03-08T00:55:44;100972.06;;;5.49;100.00
79463;BME280;68931;47.286;18.756;2024-03-08T00:56:18;100963.41;;;5.48;100.00
79463;BME280;68931;47.286;18.756;2024-03-08T00:56:50;100962.66;;;5.45;100.00
79463;BME280;68931;47.286;18.756;2024-03-08T00:57:22;100972.91;;;5.49;100.00
79463;BME280;68931;47.286;18.756;2024-03-08T00:57:54;100950.63;;;5.41;100.00
79463;BME280;68931;47.286;18.756;2024-03-08T00:58:26;100949.69;;;5.43;100.00
79463;BME280;68931;47.286;18.756;2024-03-08T00:59:00;100967.75;;;5.48;100.00
79463;BME280;68931;47.286;18.756;2024-03-08T00:59:32;100963.41;;;5.48;100.00
79463;BME280;68931;47.286;18.756;2024-03-08T01:00:07;100966.84;;;5.49;100.00
79463;BME280;68931;47.286;18.756;2024-03-08T01:00:43;100954.88;;;5.43;100.00
79463;BME280;68931;47.286;18.756;2024-03-08T01:01:18;100962.53;;;5.48;100.00
79463;BME280;68931;47.286;18.756;2024-03-08T01:01:50;100961.72;;;5.46;100.00
79463;BME280;68931;47.286;18.756;2024-03-08T01:02:22;100961.72;;;5.46;100.00
79463;BME280;68931;47.286;18.756;2024-03-08T01:02:54;100944.63;;;5.37;100.00
79463;BME280;68931;47.286;18.756;2024-03-08T01:03:27;100955.72;;;5.45;100.00
79463;BME280;68931;47.286;18.756;2024-03-08T01:03:59;100953.25;;;5.39;100.00
79463;BME280;68931;47.286;18.756;2024-03-08T01:04:31;100953.25;;;5.39;100.00
79463;BME280;68931;47.286;18.756;2024-03-08T01:05:05;100946.28;;;5.41;100.00
79463;BME280;68931;47.286;18.756;2024-03-08T01:05:40;100965.06;;;5.51;100.00
79463;BME280;68931;47.286;18.756;2024-03-08T01:06:12;100952.28;;;5.43;100.00
79463;BME280;68931;47.286;18.756;2024-03-08T01:06:44;100962.50;;;5.49;100.00
79463;BME280;68931;47.286;18.756;2024-03-08T01:07:19;100949.69;;;5.43;100.00
79463;BME280;68931;47.286;18.756;2024-03-08T01:07:51;100951.31;;;5.46;100.00
79463;BME280;68931;47.286;18.756;2024-03-08T01:08:23;100957.31;;;5.49;100.00
79463;BME280;68931;47.286;18.756;2024-03-08T01:08:55;100961.63;;;5.50;100.00
79463;BME280;68931;47.286;18.756;2024-03-08T01:09:27;100962.50;;;5.49;100.00
79463;BME280;68931;47.286;18.756;2024-03-08T01:09:59;100958.19;;;5.48;100.00
79463;BME280;68931;47.286;18.756;2024-03-08T01:10:32;100958.31;;;5.45;100.00
79463;BME280;68931;47.286;18.756;2024-03-08T01:11:04;100964.25;;;5.49;100.00
79463;BME280;68931;47.286;18.756;2024-03-08T01:11:36;100960.84;;;5.47;100.00
79463;BME280;68931;47.286;18.756;2024-03-08T01:12:09;100951.31;;;5.46;100.00
79463;BME280;68931;47.286;18.756;2024-03-08T01:12:42;100953.94;;;5.46;100.00
79463;BME280;68931;47.286;18.756;2024-03-08T01:13:17;100950.66;;;5.39;100.00
79463;BME280;68931;47.286;18.756;2024-03-08T01:13:49;100955.72;;;5.45;100.00
79463;BME280;68931;47.286;18.756;2024-03-08T01:14:22;100952.28;;;5.43;100.00
79463;BME280;68931;47.286;18.756;2024-03-08T01:14:54;100941.91;;;5.42;100.00
79463;BME280;68931;47.286;18.756;2024-03-08T01:15:26;100952.38;;;5.40;100.00
79463;BME280;68931;47.286;18.756;2024-03-08T01:15:58;100944.47;;;5.43;100.00
79463;BME280;68931;47.286;18.756;2024-03-08T01:16:30;100949.72;;;5.42;100.00
79463;BME280;68931;47.286;18.756;2024-03-08T01:17:03;100943.78;;;5.37;100.00
79463;BME280;68931;47.286;18.756;2024-03-08T01:17:36;100966.03;;;5.47;100.00
79463;BME280;68931;47.286;18.756;2024-03-08T01:18:08;100932.66;;;5.32;100.00
79463;BME280;68931;47.286;18.756;2024-03-08T01:18:41;100954.84;;;5.45;100.00
79463;BME280;68931;47.286;18.756;2024-03-08T01:19:14;100923.31;;;5.26;100.00
79463;BME280;68931;47.286;18.756;2024-03-08T01:19:48;100956.59;;;5.44;100.00
79463;BME280;68931;47.286;18.756;2024-03-08T01:20:20;100948.72;;;5.46;100.00
79463;BME280;68931;47.286;18.756;2024-03-08T01:20:53;100958.22;;;5.47;100.00
79463;BME280;68931;47.286;18.756;2024-03-08T01:21:25;100947.13;;;5.42;100.00
79463;BME280;68931;47.286;18.756;2024-03-08T01:21:57;100943.72;;;5.40;100.00
79463;BME280;68931;47.286;18.756;2024-03-08T01:22:29;100957.44;;;5.45;100.00
79463;BME280;68931;47.286;18.756;2024-03-08T01:23:01;100955.75;;;5.44;100.00
79463;BME280;68931;47.286;18.756;2024-03-08T01:23:33;100953.94;;;5.46;100.00
79463;BME280;68931;47.286;18.756;2024-03-08T01:24:06;100946.28;;;5.41;100.00
79463;BME280;68931;47.286;18.756;2024-03-08T01:24:38;100935.09;;;5.38;100.00
79463;BME280;68931;47.286;18.756;2024-03-08T01:25:10;100940.41;;;5.35;100.00
79463;BME280;68931;47.286;18.756;2024-03-08T01:25:42;100951.41;;;5.44;100.00
79463;BME280;68931;47.286;18.756;2024-03-08T01:26:15;100957.34;;;5.48;100.00
79463;BME280;68931;47.286;18.756;2024-03-08T01:26:47;100949.66;;;5.45;100.00
79463;BME280;68931;47.286;18.756;2024-03-08T01:27:19;100952.19;;;5.46;100.00
79463;BME280;68931;47.286;18.756;2024-03-08T01:27:54;100956.53;;;5.46;100.00
79463;BME280;68931;47.286;18.756;2024-03-08T01:28:26;100960.84;;;5.47;100.00
79463;BME280;68931;47.286;18.756;2024-03-08T01:28:58;100959.94;;;5.48;100.00
79463;BME280;68931;47.286;18.756;2024-03-08T01:29:30;100952.25;;;5.45;100.00
79463;BME280;68931;47.286;18.756;2024-03-08T01:30:03;100962.66;;;5.45;100.00
79463;BME280;68931;47.286;18.756;2024-03-08T01:30:35;100954.84;;;5.45;100.00
79463;BME280;68931;47.286;18.756;2024-03-08T01:31:11;100951.31;;;5.46;100.00
79463;BME280;68931;47.286;18.756;2024-03-08T01:31:43;100960.91;;;5.45;100.00
79463;BME280;68931;47.286;18.756;2024-03-08T01:32:15;100953.25;;;5.39;100.00
79463;BME280;68931;47.286;18.756;2024-03-08T01:32:47;100949.91;;;5.36;100.00
79463;BME280;68931;47.286;18.756;2024-03-08T01:33:24;100937.91;;;5.30;100.00
79463;BME280;68931;47.286;18.756;2024-03-08T01:33:57;100952.31;;;5.42;100.00
79463;BME280;68931;47.286;18.756;2024-03-08T01:34:30;100961.03;;;5.41;100.00
79463;BME280;68931;47.286;18.756;2024-03-08T01:35:02;100950.75;;;5.36;100.00
79463;BME280;68931;47.286;18.756;2024-03-08T01:35:34;100945.69;;;5.32;100.00
79463;BME280;68931;47.286;18.756;2024-03-08T01:36:06;100949.84;;;5.37;100.00
79463;BME280;68931;47.286;18.756;2024-03-08T01:36:38;100940.41;;;5.35;100.00
79463;BME280;68931;47.286;18.756;2024-03-08T01:37:10;100950.69;;;5.38;100.00
79463;BME280;68931;47.286;18.756;2024-03-08T01:37:42;100958.47;;;5.39;100.00
79463;BME280;68931;47.286;18.756;2024-03-08T01:38:14;100945.59;;;5.35;100.00
79463;BME280;68931;47.286;18.756;2024-03-08T01:38:47;100959.19;;;5.44;100.00
79463;BME280;68931;47.286;18.756;2024-03-08T01:39:19;100952.31;;;5.42;100.00
79463;BME280;68931;47.286;18.756;2024-03-08T01:39:53;100950.63;;;5.41;100.00
79463;BME280;68931;47.286;18.756;2024-03-08T01:40:25;100948.09;;;5.38;100.00
79463;BME280;68931;47.286;18.756;2024-03-08T01:40:57;100944.81;;;5.31;100.00
79463;BME280;68931;47.286;18.756;2024-03-08T01:41:29;100952.44;;;5.37;100.00
79463;BME280;68931;47.286;18.756;2024-03-08T01:42:01;100932.81;;;5.27;100.00
79463;BME280;68931;47.286;18.756;2024-03-08T01:42:34;100946.38;;;5.37;100.00
79463;BME280;68931;47.286;18.756;2024-03-08T01:43:22;100941.13;;;5.38;100.00
79463;BME280;68931;47.286;18.756;2024-03-08T01:43:56;100954.94;;;5.42;100.00
79463;BME280;68931;47.286;18.756;2024-03-08T01:44:28;100945.44;;;5.39;100.00
79463;BME280;68931;47.286;18.756;2024-03-08T01:45:02;100951.41;;;5.44;100.00
79463;BME280;68931;47.286;18.756;2024-03-08T01:45:34;100937.59;;;5.41;100.00
79463;BME280;68931;47.286;18.756;2024-03-08T01:46:07;100941.84;;;5.45;100.00
79463;BME280;68931;47.286;18.756;2024-03-08T01:46:44;100951.41;;;5.44;100.00
79463;BME280;68931;47.286;18.756;2024-03-08T01:47:17;100938.50;;;5.40;100.00
79463;BME280;68931;47.286;18.756;2024-03-08T01:47:49;100946.94;;;5.48;100.00
79463;BME280;68931;47.286;18.756;2024-03-08T01:48:21;100937.56;;;5.42;100.00
79463;BME280;68931;47.286;18.756;2024-03-08T01:48:56;100929.03;;;5.37;100.00
79463;BME280;68931;47.286;18.756;2024-03-08T01:49:29;100940.91;;;5.46;100.00
79463;BME280;68931;47.286;18.756;2024-03-08T01:50:05;100930.56;;;5.44;100.00
79463;BME280;68931;47.286;18.756;2024-03-08T01:50:40;100931.50;;;5.42;100.00
79463;BME280;68931;47.286;18.756;2024-03-08T01:51:13;100940.84;;;5.49;100.00
79463;BME280;68931;47.286;18.756;2024-03-08T01:51:48;100939.88;;;5.53;100.00
79463;BME280;68931;47.286;18.756;2024-03-08T01:52:20;100922.69;;;5.46;100.00
79463;BME280;68931;47.286;18.756;2024-03-08T01:52:54;100943.34;;;5.52;100.00
79463;BME280;68931;47.286;18.756;2024-03-08T01:53:28;100939.06;;;5.51;100.00
79463;BME280;68931;47.286;18.756;2024-03-08T01:54:03;100922.81;;;5.43;100.00
79463;BME280;68931;47.286;18.756;2024-03-08T01:54:36;100931.31;;;5.48;100.00
79463;BME280;68931;47.286;18.756;2024-03-08T01:55:08;100934.78;;;5.48;100.00
79463;BME280;68931;47.286;18.756;2024-03-08T01:55:40;100936.63;;;5.45;100.00
79463;BME280;68931;47.286;18.756;2024-03-08T01:56:15;100928.94;;;5.40;100.00
79463;BME280;68931;47.286;18.756;2024-03-08T01:56:47;100935.66;;;5.47;100.00
79463;BME280;68931;47.286;18.756;2024-03-08T01:57:20;100921.22;;;5.37;100.00
79463;BME280;68931;47.286;18.756;2024-03-08T01:57:53;100939.09;;;5.49;100.00
79463;BME280;68931;47.286;18.756;2024-03-08T01:58:27;100927.09;;;5.45;100.00
79463;BME280;68931;47.286;18.756;2024-03-08T01:59:01;100924.56;;;5.42;100.00
79463;BME280;68931;47.286;18.756;2024-03-08T01:59:33;100938.22;;;5.49;100.00
79463;BME280;68931;47.286;18.756;2024-03-08T02:00:05;100944.28;;;5.49;100.00
79463;BME280;68931;47.286;18.756;2024-03-08T02:00:41;100932.22;;;5.47;100.00
79463;BME280;68931;47.286;18.756;2024-03-08T02:01:15;100926.34;;;5.40;100.00
79463;BME280;68931;47.286;18.756;2024-03-08T02:01:47;100939.13;;;5.48;100.00
79463;BME280;68931;47.286;18.756;2024-03-08T02:02:21;100935.63;;;5.49;100.00
79463;BME280;68931;47.286;18.756;2024-03-08T02:02:54;100938.22;;;5.49;100.00
79463;BME280;68931;47.286;18.756;2024-03-08T02:03:26;100928.03;;;5.43;100.00
79463;BME280;68931;47.286;18.756;2024-03-08T02:03:58;100932.38;;;5.42;100.00
79463;BME280;68931;47.286;18.756;2024-03-08T02:04:30;100936.63;;;5.45;100.00
79463;BME280;68931;47.286;18.756;2024-03-08T02:05:05;100931.44;;;5.45;100.00
79463;BME280;68931;47.286;18.756;2024-03-08T02:05:41;100931.50;;;5.42;100.00
79463;BME280;68931;47.286;18.756;2024-03-08T02:06:13;100922.16;;;5.36;100.00
79463;BME280;68931;47.286;18.756;2024-03-08T02:06:49;100932.31;;;5.44;100.00
79463;BME280;68931;47.286;18.756;2024-03-08T02:07:21;100937.41;;;5.47;100.00
79463;BME280;68931;47.286;18.756;2024-03-08T02:07:54;100931.38;;;5.46;100.00
79463;BME280;68931;47.286;18.756;2024-03-08T02:08:26;100904.03;;;5.33;100.00
79463;BME280;68931;47.286;18.756;2024-03-08T02:08:59;100923.63;;;5.45;100.00
79463;BME280;68931;47.286;18.756;2024-03-08T02:09:31;100927.00;;;5.47;100.00
79463;BME280;68931;47.286;18.756;2024-03-08T02:10:06;100934.69;;;5.51;100.00
79463;BME280;68931;47.286;18.756;2024-03-08T02:10:43;100921.03;;;5.45;100.00
79463;BME280;68931;47.286;18.756;2024-03-08T02:11:15;100935.59;;;5.50;100.00
79463;BME280;68931;47.286;18.756;2024-03-08T02:11:47;100939.00;;;5.52;100.00
79463;BME280;68931;47.286;18.756;2024-03-08T02:12:22;100928.72;;;5.48;100.00
79463;BME280;68931;47.286;18.756;2024-03-08T02:12:55;100924.34;;;5.50;100.00
79463;BME280;68931;47.286;18.756;2024-03-08T02:13:27;100921.03;;;5.45;100.00
79463;BME280;68931;47.286;18.756;2024-03-08T02:14:00;100898.84;;;5.32;100.00
79463;BME280;68931;47.286;18.756;2024-03-08T02:14:32;100918.53;;;5.40;100.00
79463;BME280;68931;47.286;18.756;2024-03-08T02:15:04;100937.31;;;5.51;100.00
79463;BME280;68931;47.286;18.756;2024-03-08T02:15:57;100914.34;;;5.36;100.00
79463;BME280;68931;47.286;18.756;2024-03-08T02:16:33;100937.38;;;5.48;100.00
79463;BME280;68931;47.286;18.756;2024-03-08T02:17:05;100936.41;;;5.52;100.00
79463;BME280;68931;47.286;18.756;2024-03-08T02:17:37;100921.09;;;5.42;100.00
79463;BME280;68931;47.286;18.756;2024-03-08T02:18:09;100937.38;;;5.48;100.00
79463;BME280;68931;47.286;18.756;2024-03-08T02:18:41;100934.81;;;5.47;100.00
79463;BME280;68931;47.286;18.756;2024-03-08T02:19:13;100943.25;;;5.55;100.00
79463;BME280;68931;47.286;18.756;2024-03-08T02:19:45;100942.50;;;5.51;100.00
79463;BME280;68931;47.286;18.756;2024-03-08T02:20:18;100938.28;;;5.47;100.00
79463;BME280;68931;47.286;18.756;2024-03-08T02:20:55;100935.56;;;5.52;100.00
79463;BME280;68931;47.286;18.756;2024-03-08T02:21:28;100926.31;;;5.42;100.00
79463;BME280;68931;47.286;18.756;2024-03-08T02:22:06;100934.81;;;5.47;100.00
79463;BME280;68931;47.286;18.756;2024-03-08T02:22:38;100927.97;;;5.44;100.00
79463;BME280;68931;47.286;18.756;2024-03-08T02:23:10;100936.63;;;5.45;100.00
79463;BME280;68931;47.286;18.756;2024-03-08T02:23:42;100939.16;;;5.46;100.00
79463;BME280;68931;47.286;18.756;2024-03-08T02:24:14;100927.19;;;5.41;100.00
79463;BME280;68931;47.286;18.756;2024-03-08T02:24:46;100945.19;;;5.48;100.00
79463;BME280;68931;47.286;18.756;2024-03-08T02:25:18;100931.50;;;5.42;100.00
79463;BME280;68931;47.286;18.756;2024-03-08T02:25:51;100930.56;;;5.44;100.00
79463;BME280;68931;47.286;18.756;2024-03-08T02:26:23;100944.25;;;5.51;100.00
79463;BME280;68931;47.286;18.756;2024-03-08T02:26:55;100933.09;;;5.46;100.00
79463;BME280;68931;47.286;18.756;2024-03-08T02:27:28;100931.44;;;5.45;100.00
79463;BME280;68931;47.286;18.756;2024-03-08T02:28:01;100937.50;;;5.45;100.00
79463;BME280;68931;47.286;18.756;2024-03-08T02:28:33;100934.81;;;5.47;100.00
79463;BME280;68931;47.286;18.756;2024-03-08T02:29:06;100939.91;;;5.51;100.00
79463;BME280;68931;47.286;18.756;2024-03-08T02:29:38;100932.28;;;5.45;100.00
79463;BME280;68931;47.286;18.756;2024-03-08T02:30:12;100928.75;;;5.46;100.00
79463;BME280;68931;47.286;18.756;2024-03-08T02:30:48;100946.72;;;5.55;100.00
79463;BME280;68931;47.286;18.756;2024-03-08T02:31:20;100935.59;;;5.50;100.00
79463;BME280;68931;47.286;18.756;2024-03-08T02:31:53;100936.63;;;5.45;100.00
79463;BME280;68931;47.286;18.756;2024-03-08T02:32:25;100943.34;;;5.52;100.00
79463;BME280;68931;47.286;18.756;2024-03-08T02:32:58;100947.59;;;5.54;100.00
79463;BME280;68931;47.286;18.756;2024-03-08T02:33:30;100948.56;;;5.52;100.00
79463;BME280;68931;47.286;18.756;2024-03-08T02:34:02;100933.97;;;5.46;100.00
79463;BME280;68931;47.286;18.756;2024-03-08T02:34:34;100943.44;;;5.49;100.00
79463;BME280;68931;47.286;18.756;2024-03-08T02:35:06;100943.44;;;5.49;100.00
79463;BME280;68931;47.286;18.756;2024-03-08T02:35:38;100945.91;;;5.53;100.00
79463;BME280;68931;47.286;18.756;2024-03-08T02:36:10;100935.66;;;5.47;100.00
79463;BME280;68931;47.286;18.756;2024-03-08T02:36:43;100931.38;;;5.46;100.00
79463;BME280;68931;47.286;18.756;2024-03-08T02:37:16;100928.69;;;5.49;100.00
79463;BME280;68931;47.286;18.756;2024-03-08T02:37:48;100918.50;;;5.42;100.00
79463;BME280;68931;47.286;18.756;2024-03-08T02:38:22;100940.72;;;5.53;100.00
79463;BME280;68931;47.286;18.756;2024-03-08T02:38:56;100934.66;;;5.53;100.00
79463;BME280;68931;47.286;18.756;2024-03-08T02:39:28;100932.06;;;5.53;100.00
79463;BME280;68931;47.286;18.756;2024-03-08T02:40:00;100928.50;;;5.55;100.00
79463;BME280;68931;47.286;18.756;2024-03-08T02:40:32;100938.03;;;5.55;100.00
79463;BME280;68931;47.286;18.756;2024-03-08T02:41:04;100924.41;;;5.47;100.00
79463;BME280;68931;47.286;18.756;2024-03-08T02:41:38;100933.69;;;5.55;100.00
79463;BME280;68931;47.286;18.756;2024-03-08T02:42:12;100935.31;;;5.59;100.00
79463;BME280;68931;47.286;18.756;2024-03-08T02:42:45;100927.75;;;5.52;100.00
79463;BME280;68931;47.286;18.756;2024-03-08T02:43:18;100939.66;;;5.59;100.00
79463;BME280;68931;47.286;18.756;2024-03-08T02:43:50;100920.84;;;5.51;100.00
79463;BME280;68931;47.286;18.756;2024-03-08T02:44:22;100930.25;;;5.55;100.00
79463;BME280;68931;47.286;18.756;2024-03-08T02:44:55;100914.19;;;5.41;100.00
79463;BME280;68931;47.286;18.756;2024-03-08T02:45:26;100933.66;;;5.57;100.00
79463;BME280;68931;47.286;18.756;2024-03-08T02:45:58;100928.56;;;5.54;100.00
79463;BME280;68931;47.286;18.756;2024-03-08T02:46:31;100935.34;;;5.58;100.00
79463;BME280;68931;47.286;18.756;2024-03-08T02:47:03;100925.00;;;5.56;100.00
79463;BME280;68931;47.286;18.756;2024-03-08T02:47:35;100940.53;;;5.59;100.00
79463;BME280;68931;47.286;18.756;2024-03-08T02:48:08;100938.00;;;5.56;100.00
79463;BME280;68931;47.286;18.756;2024-03-08T02:48:40;100935.34;;;5.58;100.00
79463;BME280;68931;47.286;18.756;2024-03-08T02:49:12;100925.84;;;5.57;100.00
79463;BME280;68931;47.286;18.756;2024-03-08T02:49:44;100931.00;;;5.58;100.00